createdAt,value
2022-10-01T00:01:36.936Z,6.13
2022-10-01T00:17:19.915Z,6.03
2022-10-01T00:33:02.647Z,5.95
2022-10-01T00:48:45.148Z,5.89
2022-10-01T01:04:27.391Z,5.82
2022-10-01T01:20:09.834Z,5.76
2022-10-01T01:35:52.942Z,5.72
2022-10-01T01:51:35.733Z,5.67
2022-10-01T02:07:18.709Z,5.59
2022-10-01T02:23:01.289Z,5.61
2022-10-01T02:38:43.639Z,5.56
2022-10-01T02:54:26.685Z,5.61
2022-10-01T03:10:09.262Z,5.81
2022-10-01T03:25:52.343Z,6.04
2022-10-01T03:41:34.978Z,6.17
2022-10-01T03:57:17.567Z,6.24
2022-10-01T04:13:00.621Z,6.24
2022-10-01T04:28:43.462Z,6.27
2022-10-01T04:44:26.376Z,6.32
2022-10-01T05:00:08.816Z,6.39
2022-10-01T05:15:51.186Z,6.46
2022-10-01T05:31:34.185Z,6.6
2022-10-01T05:47:16.688Z,6.8
2022-10-01T06:02:59.213Z,7.11
2022-10-01T06:18:42.262Z,7.64
2022-10-01T06:34:24.592Z,8.2
2022-10-01T06:50:07.089Z,8.64
2022-10-01T07:05:50.169Z,8.97
2022-10-01T07:21:32.987Z,9.16
2022-10-01T07:37:15.779Z,9.37
2022-10-01T07:52:58.432Z,9.8
2022-10-01T08:08:41.168Z,10.42
2022-10-01T08:24:23.934Z,10.92
2022-10-01T08:40:06.671Z,11.43
2022-10-01T08:55:48.805Z,11.97
2022-10-01T09:11:31.082Z,12.89
2022-10-01T09:27:13.620Z,13.32
2022-10-01T09:42:56.471Z,13.58
2022-10-01T09:58:39.345Z,13.42
2022-10-01T10:14:21.684Z,13.01
2022-10-01T10:30:03.718Z,12.64
2022-10-01T10:45:46.445Z,11.93
2022-10-01T11:01:29.066Z,11.35
2022-10-01T11:02:16.366Z,11.5
2022-10-01T11:17:59.295Z,11.14
2022-10-01T11:33:41.661Z,10.99
2022-10-01T11:49:24.660Z,11.06
2022-10-01T12:05:06.843Z,10.97
2022-10-01T12:20:49.083Z,10.86
2022-10-01T12:36:31.485Z,10.85
2022-10-01T12:52:14.394Z,10.75
2022-10-01T13:07:56.782Z,10.56
2022-10-01T13:23:39.304Z,10.56
2022-10-01T13:39:21.711Z,10.65
2022-10-01T13:55:04.767Z,10.87
2022-10-01T14:10:47.306Z,11.06
2022-10-01T14:26:30.350Z,11.2
2022-10-01T14:42:13.140Z,11.39
2022-10-01T14:57:55.874Z,11.49
2022-10-01T15:13:37.914Z,11.61
2022-10-01T15:29:20.234Z,11.78
2022-10-01T15:45:03.266Z,11.91
2022-10-01T16:00:45.493Z,12.01
2022-10-01T16:16:28.128Z,11.92
2022-10-01T16:32:10.869Z,11.55
2022-10-01T16:47:53.477Z,11.22
2022-10-01T17:03:35.993Z,10.92
2022-10-01T17:19:18.564Z,10.75
2022-10-01T17:35:00.978Z,10.61
2022-10-01T18:06:26.106Z,10.82
2022-10-01T18:22:08.981Z,10.92
2022-10-01T18:37:52.017Z,11.11
2022-10-01T18:53:34.064Z,11.41
2022-10-01T19:09:16.395Z,11.73
2022-10-01T19:24:58.961Z,11.79
2022-10-01T19:40:41.584Z,11.83
2022-10-01T19:56:24.426Z,11.77
2022-10-01T20:12:07.366Z,11.58
2022-10-01T20:27:50.373Z,11.25
2022-10-01T20:43:32.770Z,11
2022-10-01T20:59:15.715Z,10.89
2022-10-01T21:14:58.599Z,10.75
2022-10-01T21:30:41.275Z,10.59
2022-10-01T21:46:24.137Z,10.41
2022-10-01T22:02:07.125Z,10.33
2022-10-01T22:17:49.675Z,10.25
2022-10-01T22:33:32.310Z,10.27
2022-10-01T22:49:14.431Z,10.28
2022-10-01T23:04:56.817Z,10.18
2022-10-01T23:20:38.996Z,10.1
2022-10-01T23:36:21.889Z,10.04
2022-10-01T23:52:04.346Z,10.03
